Time;durP1;ratioP1;P1;durP2;ratioP2;P2;SDS_P1;SDS_P2;PMS_P1;PMS_P2;Temp;Humidity;BMP_temperature;BMP_pressure;BME280_temperature;BME280_humidity;BME280_pressure;Samples;Min_cycle;Max_cycle;Signal;HPM_P1;HPM_P2
2023/03/05 00:01:25;;;;;;;9.23;3.25;;;;;;;7.21;61.33;102178.41;5021099;28;20103;-59
2023/03/05 00:03:52;;;;;;;10.10;3.28;;;;;;;7.19;61.80;102169.50;5018774;28;20540;-58
2023/03/05 00:06:19;;;;;;;13.00;3.40;;;;;;;7.20;61.71;102173.09;5029802;28;20037;-58
2023/03/05 00:08:44;;;;;;;8.25;3.10;;;;;;;7.18;61.54;102167.75;5031695;28;20021;-59
2023/03/05 00:11:11;;;;;;;9.68;3.88;;;;;;;7.16;61.33;102172.66;5029049;28;20064;-58
2023/03/05 00:13:37;;;;;;;12.25;3.42;;;;;;;7.18;61.30;102175.19;5029669;28;20026;-58
2023/03/05 00:16:04;;;;;;;11.80;3.13;;;;;;;7.14;61.64;102166.44;5030839;28;20108;-59
2023/03/05 00:18:29;;;;;;;11.18;3.30;;;;;;;7.16;61.75;102163.50;5030790;28;20045;-58
2023/03/05 00:20:55;;;;;;;11.98;3.28;;;;;;;7.14;61.29;102169.22;5050728;28;20059;-59
2023/03/05 00:23:20;;;;;;;11.32;3.30;;;;;;;7.14;61.70;102166.44;5042578;28;20037;-59
2023/03/05 00:25:45;;;;;;;11.88;3.15;;;;;;;7.12;61.97;102165.81;5028031;28;20465;-59
2023/03/05 00:28:11;;;;;;;9.00;3.40;;;;;;;7.08;62.35;102168.09;5030681;28;20041;-58
2023/03/05 00:30:36;;;;;;;8.30;2.78;;;;;;;7.09;62.03;102164.28;5030987;28;20049;-59
2023/03/05 00:33:02;;;;;;;9.68;3.25;;;;;;;7.05;61.62;102162.13;5028462;28;20037;-59
2023/03/05 00:35:27;;;;;;;10.07;3.13;;;;;;;7.07;62.14;102155.38;5029475;28;20037;-59
2023/03/05 00:37:53;;;;;;;11.63;3.03;;;;;;;7.06;61.95;102153.63;5014245;28;20026;-59
2023/03/05 00:40:18;;;;;;;10.65;3.22;;;;;;;7.06;61.58;102153.63;5025088;28;20021;-59
2023/03/05 00:42:44;;;;;;;10.63;3.13;;;;;;;7.04;61.77;102144.72;5029218;28;20065;-59
2023/03/05 00:45:10;;;;;;;9.63;3.00;;;;;;;7.00;61.59;102143.41;5028521;28;20135;-58
2023/03/05 00:47:35;;;;;;;11.35;3.35;;;;;;;7.00;61.20;102148.94;5028619;28;20033;-58
2023/03/05 00:50:01;;;;;;;8.85;3.10;;;;;;;7.03;61.32;102142.13;5030762;28;20061;-59
2023/03/05 00:52:27;;;;;;;11.80;3.25;;;;;;;7.01;61.56;102138.72;5026703;28;20034;-59
2023/03/05 00:54:52;;;;;;;11.13;3.28;;;;;;;7.01;61.71;102133.22;5028093;28;20088;-59
2023/03/05 00:57:18;;;;;;;8.73;2.88;;;;;;;7.00;61.91;102137.88;5029884;28;21113;-59
2023/03/05 00:59:43;;;;;;;9.93;2.90;;;;;;;7.00;61.79;102129.59;5029055;28;20053;-59
2023/03/05 01:02:09;;;;;;;11.43;3.10;;;;;;;6.95;61.58;102123.78;5028012;28;20037;-59
2023/03/05 01:04:34;;;;;;;12.13;3.05;;;;;;;6.98;61.69;102130.84;5030146;28;20032;-59
2023/03/05 01:06:59;;;;;;;8.68;3.25;;;;;;;6.98;61.75;102133.59;5029906;28;20133;-59
2023/03/05 01:09:24;;;;;;;14.73;3.25;;;;;;;6.98;61.35;102126.16;5028536;28;20075;-59
2023/03/05 01:11:51;;;;;;;9.00;3.10;;;;;;;6.97;61.96;102124.47;5031695;28;20033;-59
2023/03/05 01:14:17;;;;;;;12.32;3.75;;;;;;;6.97;62.27;102124.47;5032158;28;20043;-59
2023/03/05 01:16:42;;;;;;;12.55;3.80;;;;;;;6.95;61.87;102123.78;5028393;28;20040;-59
2023/03/05 01:19:08;;;;;;;15.70;3.78;;;;;;;6.95;61.99;102114.66;5028893;28;20029;-59
2023/03/05 01:21:35;;;;;;;13.23;3.33;;;;;;;6.96;62.22;102113.63;5029073;28;20037;-58
2023/03/05 01:24:00;;;;;;;12.95;3.55;;;;;;;6.94;62.72;102115.72;5027335;28;20029;-59
2023/03/05 01:26:26;;;;;;;11.82;3.22;;;;;;;6.96;62.79;102108.97;5028872;28;20030;-59
2023/03/05 01:28:51;;;;;;;10.75;3.03;;;;;;;6.93;62.83;102103.84;5019904;28;20087;-59
2023/03/05 01:31:17;;;;;;;12.30;3.40;;;;;;;6.92;62.33;102099.38;5026836;28;20026;-59
2023/03/05 01:33:42;;;;;;;15.38;3.80;;;;;;;6.89;62.09;102095.09;5029641;28;20034;-59
2023/03/05 01:36:15;;;;;;;10.32;3.33;;;;;;;6.92;62.54;102099.38;5029633;28;20460;-59
2023/03/05 01:38:42;;;;;;;14.07;3.17;;;;;;;6.87;62.95;102090.81;5029666;28;20030;-59
2023/03/05 01:41:09;;;;;;;11.98;3.33;;;;;;;6.92;62.45;102091.09;5028785;28;20037;-59
2023/03/05 01:43:34;;;;;;;13.15;3.47;;;;;;;6.92;62.57;102081.94;5027620;28;20079;-59
2023/03/05 01:46:22;;;;;;;10.82;2.65;;;;;;;6.95;62.95;102085.16;5026582;28;20444;-59
2023/03/05 01:48:53;;;;;;;11.80;2.88;;;;;;;6.85;62.95;102076.38;5028483;28;20035;-59
2023/03/05 01:51:21;;;;;;;12.27;3.40;;;;;;;6.88;62.93;102074.06;5027899;28;20045;-59
2023/03/05 01:53:46;;;;;;;13.50;3.25;;;;;;;6.83;62.79;102065.50;5028585;28;20033;-59
2023/03/05 01:56:12;;;;;;;6.63;3.05;;;;;;;6.83;62.80;102065.50;5028903;28;20025;-59
2023/03/05 01:58:38;;;;;;;9.35;2.80;;;;;;;6.81;63.16;102064.03;5025910;28;20171;-59
2023/03/05 02:01:04;;;;;;;12.85;2.90;;;;;;;6.79;63.18;102057.84;5027201;28;20481;-59
2023/03/05 02:03:31;;;;;;;8.88;2.63;;;;;;;6.79;63.64;102055.06;5028432;28;20038;-59
2023/03/05 02:05:56;;;;;;;14.65;2.90;;;;;;;6.75;63.01;102051.88;5029152;28;20036;-59
2023/03/05 02:08:21;;;;;;;8.02;3.15;;;;;;;6.73;62.53;102040.19;5029357;28;20029;-59
2023/03/05 02:10:53;;;;;;;10.95;2.78;;;;;;;6.76;62.90;102044.44;5029717;28;20030;-59
2023/03/05 02:13:24;;;;;;;9.38;2.60;;;;;;;6.77;62.83;102037.88;5026459;28;20025;-58
2023/03/05 02:15:51;;;;;;;12.95;2.95;;;;;;;6.74;63.52;102027.25;5028520;28;20029;-58
2023/03/05 02:18:18;;;;;;;7.10;2.78;;;;;;;6.76;63.37;102036.16;5025824;28;20443;-58
2023/03/05 02:20:56;;;;;;;12.25;2.85;;;;;;;6.77;63.61;102032.38;5028413;28;20061;-58
2023/03/05 02:23:23;;;;;;;10.02;3.15;;;;;;;6.72;63.46;102012.78;5027252;28;20034;-58
2023/03/05 02:25:49;;;;;;;11.55;3.25;;;;;;;6.73;63.49;102026.38;5026941;28;20030;-58
2023/03/05 02:28:33;;;;;;;8.45;2.60;;;;;;;6.68;63.99;102019.75;5027486;28;20037;-59
2023/03/05 02:30:59;;;;;;;9.98;2.92;;;;;;;6.65;63.78;102018.25;5029583;28;20034;-59
2023/03/05 02:33:25;;;;;;;10.23;2.45;;;;;;;6.65;63.54;102021.00;5025003;28;20037;-58
2023/03/05 02:35:50;;;;;;;9.98;2.63;;;;;;;6.63;63.59;102021.19;5011037;28;20056;-59
2023/03/05 02:38:18;;;;;;;10.35;3.25;;;;;;;6.66;63.57;102019.94;5009106;28;20477;-59
2023/03/05 02:40:43;;;;;;;9.90;2.95;;;;;;;6.64;63.44;102006.38;5019675;28;20052;-59
2023/03/05 02:43:09;;;;;;;11.32;2.70;;;;;;;6.61;64.00;102012.28;5032240;28;20485;-59
2023/03/05 02:45:35;;;;;;;10.25;3.08;;;;;;;6.60;63.64;102016.09;5031527;28;20566;-59
2023/03/05 02:48:00;;;;;;;7.05;2.42;;;;;;;6.61;63.47;102001.25;5031637;28;20120;-58
2023/03/05 02:50:27;;;;;;;10.32;2.63;;;;;;;6.63;63.97;102004.63;5021193;28;20113;-59
2023/03/05 02:52:53;;;;;;;11.32;3.03;;;;;;;6.59;64.14;102005.25;5036427;28;20086;-59
2023/03/05 02:55:18;;;;;;;7.78;2.90;;;;;;;6.59;63.90;101985.94;5032052;28;20025;-59
2023/03/05 02:57:44;;;;;;;9.45;2.70;;;;;;;6.59;64.55;101986.78;5031985;28;20025;-59
2023/03/05 03:00:10;;;;;;;7.43;3.03;;;;;;;6.56;63.52;101984.44;5031837;28;20124;-58
2023/03/05 03:02:35;;;;;;;11.80;3.40;;;;;;;6.53;64.46;101982.09;5031846;28;20033;-59
2023/03/05 03:05:01;;;;;;;10.90;2.90;;;;;;;6.52;64.08;101972.06;5031218;28;20610;-59
2023/03/05 03:07:26;;;;;;;11.82;3.17;;;;;;;6.53;63.91;101975.72;5031503;28;20033;-59
2023/03/05 03:09:54;;;;;;;8.82;2.92;;;;;;;6.52;64.72;101969.31;5028526;28;20030;-59
2023/03/05 03:12:20;;;;;;;9.98;2.95;;;;;;;6.50;64.11;101965.91;5028899;28;20045;-59
2023/03/05 03:14:45;;;;;;;10.35;2.85;;;;;;;6.52;64.07;101968.47;5026124;28;20033;-59
2023/03/05 03:17:14;;;;;;;13.82;3.00;;;;;;;6.51;64.24;101962.09;5024885;28;20127;-59
2023/03/05 03:19:40;;;;;;;12.80;3.83;;;;;;;6.47;64.17;101955.28;5028036;28;20057;-59
2023/03/05 03:22:06;;;;;;;9.18;3.03;;;;;;;6.45;64.34;101960.16;5027295;28;20118;-58
2023/03/05 03:24:32;;;;;;;12.25;3.15;;;;;;;6.45;64.29;101949.13;5018066;28;20038;-59
2023/03/05 03:26:57;;;;;;;9.93;3.70;;;;;;;6.45;64.35;101954.63;5028127;28;20029;-59
2023/03/05 03:29:23;;;;;;;12.05;3.92;;;;;;;6.47;64.22;101948.91;5031343;28;20047;-59
2023/03/05 03:31:49;;;;;;;11.45;3.40;;;;;;;6.46;64.30;101939.78;5029681;28;20048;-59
2023/03/05 03:34:15;;;;;;;10.43;3.40;;;;;;;6.46;63.89;101937.03;5032724;28;20036;-59
2023/03/05 03:36:45;;;;;;;10.85;3.58;;;;;;;6.45;64.39;101938.09;5030081;28;20029;-59
2023/03/05 03:39:10;;;;;;;8.30;3.17;;;;;;;6.43;64.73;101929.16;5031999;28;20362;-59
2023/03/05 03:41:40;;;;;;;13.50;3.42;;;;;;;6.40;64.32;101937.81;5023915;28;20037;-59
2023/03/05 03:44:07;;;;;;;8.52;3.28;;;;;;;6.38;63.95;101926.16;5011176;28;20030;-59
2023/03/05 03:46:33;;;;;;;10.40;3.45;;;;;;;6.35;64.39;101921.88;5011671;28;20073;-59
2023/03/05 03:48:59;;;;;;;10.35;3.35;;;;;;;6.37;64.63;101919.78;5012064;28;20022;-59
2023/03/05 03:51:24;;;;;;;8.90;3.30;;;;;;;6.39;64.50;101922.34;5019562;28;20477;-59
2023/03/05 03:53:50;;;;;;;8.73;3.40;;;;;;;6.40;63.63;101924.03;5030771;28;20485;-59
2023/03/05 03:56:15;;;;;;;11.63;3.80;;;;;;;6.38;64.14;101932.50;5029705;28;20568;-59
2023/03/05 03:58:40;;;;;;;11.55;4.43;;;;;;;6.32;63.87;101916.75;5026600;28;20030;-58
2023/03/05 04:01:05;;;;;;;10.05;4.10;;;;;;;6.29;64.48;101921.84;5028812;28;20048;-59
2023/03/05 04:03:31;;;;;;;17.08;4.32;;;;;;;6.35;64.35;101913.59;5030818;28;20065;-59
2023/03/05 04:05:56;;;;;;;12.45;4.25;;;;;;;6.37;63.83;101917.03;5029449;28;20030;-59
2023/03/05 04:08:21;;;;;;;10.95;4.82;;;;;;;6.35;64.16;101904.47;5029411;28;20035;-59
2023/03/05 04:10:47;;;;;;;11.77;4.07;;;;;;;6.34;64.28;101911.06;5029137;28;20033;-58
2023/03/05 04:13:12;;;;;;;10.43;5.00;;;;;;;6.30;64.61;101910.59;5030325;28;20057;-59
2023/03/05 04:15:38;;;;;;;10.07;4.07;;;;;;;6.33;64.35;101909.34;5024185;28;20116;-59
2023/03/05 04:18:03;;;;;;;14.10;4.63;;;;;;;6.29;64.24;101897.03;5051049;28;20033;-58
2023/03/05 04:20:28;;;;;;;11.10;4.68;;;;;;;6.33;64.56;101892.81;5049635;28;20025;-59
2023/03/05 04:22:54;;;;;;;12.77;4.57;;;;;;;6.29;64.21;101895.13;5036773;28;20035;-59
2023/03/05 04:25:19;;;;;;;16.15;4.97;;;;;;;6.28;64.45;101887.88;5028013;28;20028;-59
2023/03/05 04:27:44;;;;;;;12.48;5.90;;;;;;;6.24;64.48;101883.81;5030669;28;20840;-59
2023/03/05 04:30:13;;;;;;;14.13;5.05;;;;;;;6.21;64.21;101887.00;5029847;28;20041;-58
2023/03/05 04:32:39;;;;;;;14.85;4.90;;;;;;;6.22;64.71;101885.09;5025965;28;20049;-59
2023/03/05 04:35:04;;;;;;;13.10;5.20;;;;;;;6.23;64.58;101878.50;5029620;28;20099;-59
2023/03/05 04:37:29;;;;;;;19.88;5.35;;;;;;;6.22;64.40;101879.56;5030301;28;20025;-59
2023/03/05 04:39:55;;;;;;;12.65;4.90;;;;;;;6.26;64.43;101886.38;5029069;28;20065;-59
2023/03/05 04:42:20;;;;;;;10.15;4.95;;;;;;;6.21;64.14;101883.34;5030160;28;20059;-59
2023/03/05 04:44:48;;;;;;;17.90;5.97;;;;;;;6.18;64.12;101873.59;5029791;28;20057;-59
2023/03/05 04:47:14;;;;;;;12.38;5.15;;;;;;;6.21;64.32;101873.22;5029861;28;20366;-59
2023/03/05 04:49:39;;;;;;;14.18;5.68;;;;;;;6.15;64.47;101872.06;5022803;28;20041;-59
2023/03/05 04:52:04;;;;;;;13.27;5.30;;;;;;;6.20;64.06;101867.88;5026024;28;20065;-58
2023/03/05 04:54:29;;;;;;;17.88;5.68;;;;;;;6.17;64.62;101868.25;5029996;28;20408;-58
2023/03/05 04:56:55;;;;;;;18.08;5.38;;;;;;;6.19;64.36;101866.19;5030105;28;20383;-58
2023/03/05 04:59:20;;;;;;;12.88;5.20;;;;;;;6.14;64.65;101870.38;5030526;28;20025;-58
2023/03/05 05:01:45;;;;;;;12.10;5.70;;;;;;;6.18;64.45;101862.56;5028466;28;20056;-59
2023/03/05 05:04:11;;;;;;;13.82;5.28;;;;;;;6.15;64.40;101863.81;5029484;28;20029;-60
2023/03/05 05:06:36;;;;;;;14.75;5.88;;;;;;;6.19;64.81;101857.91;5024678;28;20113;-59
2023/03/05 05:09:01;;;;;;;9.95;4.50;;;;;;;6.19;64.69;101864.25;5029490;28;20037;-59
2023/03/05 05:11:27;;;;;;;9.05;4.55;;;;;;;6.14;64.24;101850.25;5031692;28;20041;-59
2023/03/05 05:13:52;;;;;;;11.18;5.20;;;;;;;6.14;65.02;101847.47;5030579;28;20024;-59
2023/03/05 05:16:17;;;;;;;14.27;5.63;;;;;;;6.17;64.63;101854.47;5045553;28;20048;-58
2023/03/05 05:18:43;;;;;;;10.45;5.72;;;;;;;6.18;64.85;101856.22;5039317;28;20038;-58
2023/03/05 05:21:10;;;;;;;16.42;6.18;;;;;;;6.17;64.70;101851.72;5043765;28;20032;-59
2023/03/05 05:23:36;;;;;;;12.90;5.60;;;;;;;6.18;64.86;101846.03;5048863;28;20499;-59
2023/03/05 05:26:03;;;;;;;12.75;6.22;;;;;;;6.19;64.91;101849.63;5041927;28;20032;-58
2023/03/05 05:28:29;;;;;;;8.98;5.53;;;;;;;6.17;65.92;101844.34;5028689;28;20067;-58
2023/03/05 05:30:56;;;;;;;14.45;6.28;;;;;;;6.17;65.27;101843.44;5028331;28;20025;-58
2023/03/05 05:33:21;;;;;;;16.23;7.07;;;;;;;6.14;65.56;101842.81;5030492;28;20017;-58
2023/03/05 05:35:47;;;;;;;20.55;7.32;;;;;;;6.18;66.10;101845.19;5028256;28;20130;-58
2023/03/05 05:38:12;;;;;;;14.50;7.75;;;;;;;6.20;65.95;101846.66;5026949;28;20034;-58
2023/03/05 05:40:38;;;;;;;12.60;7.32;;;;;;;6.13;65.65;101843.88;5029746;28;20032;-58
2023/03/05 05:43:03;;;;;;;11.95;6.55;;;;;;;6.11;66.45;101836.84;5028185;28;20041;-58
2023/03/05 05:45:29;;;;;;;19.83;6.95;;;;;;;6.16;65.97;101842.59;5030036;28;20124;-58
2023/03/05 05:47:54;;;;;;;13.73;6.35;;;;;;;6.12;66.60;101836.63;5026010;28;20172;-58
2023/03/05 05:50:19;;;;;;;14.35;6.90;;;;;;;6.14;66.99;101836.47;5027097;28;20120;-58
2023/03/05 05:52:50;;;;;;;12.85;6.63;;;;;;;6.10;66.92;101829.63;5030061;28;20075;-59
2023/03/05 05:55:15;;;;;;;13.45;6.47;;;;;;;6.13;66.51;101832.84;5029388;28;20034;-58
2023/03/05 05:57:40;;;;;;;11.55;6.65;;;;;;;6.14;66.64;101828.19;5028348;28;20029;-58
2023/03/05 06:00:10;;;;;;;15.98;7.10;;;;;;;6.13;66.61;101824.59;5029090;28;20028;-58
2023/03/05 06:02:39;;;;;;;13.90;6.63;;;;;;;6.08;67.15;101818.78;5024947;28;20033;-59
2023/03/05 06:05:06;;;;;;;12.75;6.55;;;;;;;6.05;67.06;101824.72;5014334;28;20025;-59
2023/03/05 06:07:33;;;;;;;12.52;5.82;;;;;;;6.04;67.40;101811.97;5027145;28;20542;-59
2023/03/05 06:09:58;;;;;;;10.02;5.90;;;;;;;6.06;67.30;101811.78;5024871;28;20037;-58
2023/03/05 06:12:23;;;;;;;10.02;5.97;;;;;;;6.09;67.93;101808.63;5020656;28;20087;-59
2023/03/05 06:14:49;;;;;;;13.00;6.15;;;;;;;6.09;67.83;101803.09;5028330;28;20032;-59
2023/03/05 06:17:14;;;;;;;18.05;6.32;;;;;;;6.05;67.27;101799.94;5012992;28;20026;-59
2023/03/05 06:19:39;;;;;;;16.45;6.00;;;;;;;6.09;67.63;101803.09;5030124;28;20410;-59
2023/03/05 06:22:05;;;;;;;12.20;6.28;;;;;;;6.08;67.72;101802.25;5032291;28;20064;-58
2023/03/05 06:24:30;;;;;;;16.75;6.40;;;;;;;6.06;67.87;101804.38;5033716;28;20036;-59
2023/03/05 06:26:55;;;;;;;12.00;6.07;;;;;;;6.05;67.60;101810.94;5031264;28;20117;-59
2023/03/05 06:29:20;;;;;;;13.85;6.40;;;;;;;6.03;67.96;101804.78;5032564;28;20065;-59
2023/03/05 06:31:46;;;;;;;15.38;6.30;;;;;;;6.04;67.90;101803.72;5030725;28;20111;-59
2023/03/05 06:34:11;;;;;;;11.30;6.13;;;;;;;6.04;67.51;101800.94;5025197;28;20493;-58
2023/03/05 06:36:40;;;;;;;10.18;5.82;;;;;;;6.05;67.80;101808.19;5013253;28;20492;-59
2023/03/05 06:39:05;;;;;;;13.20;6.13;;;;;;;6.08;68.00;101805.00;5023878;28;20152;-59
2023/03/05 06:41:31;;;;;;;12.27;5.55;;;;;;;6.04;68.67;101809.22;5027930;28;20168;-59
2023/03/05 06:43:58;;;;;;;13.73;6.07;;;;;;;6.05;68.24;101810.94;5031048;28;20515;-59
2023/03/05 06:46:29;;;;;;;10.02;5.50;;;;;;;6.08;68.77;101809.69;5028849;28;20182;-59
2023/03/05 06:48:57;;;;;;;13.43;6.05;;;;;;;6.03;68.16;101806.69;5029990;28;20029;-58
2023/03/05 06:51:28;;;;;;;12.48;6.22;;;;;;;6.06;68.59;101803.53;5028125;28;20447;-58
2023/03/05 06:53:57;;;;;;;11.70;5.28;;;;;;;6.04;67.96;101806.47;5031751;28;20030;-59
2023/03/05 06:56:23;;;;;;;12.82;5.88;;;;;;;6.03;68.55;101798.41;5033144;28;20373;-59
2023/03/05 06:58:50;;;;;;;10.98;5.63;;;;;;;6.05;68.53;101802.69;5032958;28;20017;-59
2023/03/05 07:01:15;;;;;;;9.10;6.00;;;;;;;6.02;68.49;101811.34;5030860;28;20358;-59
2023/03/05 07:03:41;;;;;;;8.18;5.22;;;;;;;6.02;68.62;101807.75;5029821;28;20045;-59
2023/03/05 07:06:10;;;;;;;10.70;5.63;;;;;;;6.03;68.68;101806.69;5032709;28;20048;-59
2023/03/05 07:08:36;;;;;;;9.30;5.55;;;;;;;6.04;68.43;101808.38;5027652;28;20152;-59
2023/03/05 07:11:02;;;;;;;8.65;5.28;;;;;;;6.02;68.50;101805.84;5031991;28;20026;-59
2023/03/05 07:13:28;;;;;;;8.63;5.05;;;;;;;6.05;68.29;101802.69;5044287;28;20491;-59
2023/03/05 07:15:54;;;;;;;9.23;4.90;;;;;;;6.04;68.45;101805.63;5031819;28;20095;-59
2023/03/05 07:18:19;;;;;;;10.48;5.13;;;;;;;6.02;68.48;101807.75;5031163;28;20102;-59
2023/03/05 07:20:44;;;;;;;11.63;5.15;;;;;;;6.02;68.57;101797.56;5031023;28;20544;-59
2023/03/05 07:23:10;;;;;;;10.85;5.05;;;;;;;6.03;68.99;101798.41;5022206;28;20540;-59
2023/03/05 07:25:36;;;;;;;8.75;4.97;;;;;;;6.08;69.21;101796.75;5012375;28;20034;-59
2023/03/05 07:28:04;;;;;;;11.77;5.30;;;;;;;6.09;69.31;101790.22;5016343;28;20385;-59
2023/03/05 07:30:30;;;;;;;7.40;4.70;;;;;;;6.11;69.12;101787.22;5024926;28;20495;-58
2023/03/05 07:32:55;;;;;;;7.30;4.85;;;;;;;6.08;69.44;101787.63;5024417;28;20112;-58
2023/03/05 07:35:20;;;;;;;10.13;4.72;;;;;;;6.11;69.21;101785.31;5030402;28;20162;-58
2023/03/05 07:37:45;;;;;;;7.95;4.45;;;;;;;6.13;69.09;101791.50;5031902;28;20025;-58
2023/03/05 07:40:11;;;;;;;5.10;4.35;;;;;;;6.19;69.03;101787.06;5030455;28;20077;-59
2023/03/05 07:42:36;;;;;;;6.82;4.45;;;;;;;6.21;68.90;101787.75;5030105;28;20029;-58
2023/03/05 07:45:02;;;;;;;6.03;4.18;;;;;;;6.24;68.75;101783.72;5025364;28;20049;-59
2023/03/05 07:47:27;;;;;;;7.57;3.72;;;;;;;6.21;68.86;101785.00;5014582;28;20040;-60
2023/03/05 07:49:52;;;;;;;6.25;4.07;;;;;;;6.26;68.76;101792.66;5030456;28;20018;-60
2023/03/05 07:52:18;;;;;;;8.90;4.03;;;;;;;6.24;68.68;101789.22;5031555;28;20030;-59
2023/03/05 07:54:46;;;;;;;7.93;3.60;;;;;;;6.26;69.30;101787.13;5031540;28;20805;-59
2023/03/05 07:57:12;;;;;;;7.65;3.72;;;;;;;6.27;68.88;101783.31;5029642;28;20096;-59
2023/03/05 07:59:38;;;;;;;7.25;3.58;;;;;;;6.25;69.22;101791.81;5028363;28;20033;-59
2023/03/05 08:02:04;;;;;;;6.82;3.75;;;;;;;6.25;68.99;101790.91;5027208;28;20037;-59
2023/03/05 08:04:32;;;;;;;5.10;3.50;;;;;;;6.28;68.98;101787.75;5025430;28;20544;-59
2023/03/05 08:06:58;;;;;;;10.20;4.10;;;;;;;6.28;69.24;101773.97;5029351;28;20033;-60
2023/03/05 08:09:23;;;;;;;4.47;3.20;;;;;;;6.31;69.16;101776.34;5030378;28;20051;-59
2023/03/05 08:11:49;;;;;;;6.82;3.17;;;;;;;6.40;68.75;101769.59;5030106;28;20465;-59
2023/03/05 08:14:14;;;;;;;6.10;3.15;;;;;;;6.42;69.33;101784.06;5029745;28;20529;-59
2023/03/05 08:16:40;;;;;;;5.38;2.95;;;;;;;6.45;69.46;101775.38;5028119;28;20033;-60
2023/03/05 08:19:05;;;;;;;5.22;3.08;;;;;;;6.44;68.94;101770.91;5025691;28;20087;-59
2023/03/05 08:21:34;;;;;;;6.97;3.10;;;;;;;6.46;68.67;101770.72;5014432;28;20429;-58
2023/03/05 08:24:02;;;;;;;5.55;2.95;;;;;;;6.49;69.21;101765.63;5012729;28;20030;-59
2023/03/05 08:26:31;;;;;;;6.80;3.65;;;;;;;6.49;68.55;101764.78;5019384;28;20033;-59
2023/03/05 08:28:57;;;;;;;6.88;3.47;;;;;;;6.50;69.08;101763.72;5028360;28;20057;-59
2023/03/05 08:31:24;;;;;;;6.85;3.50;;;;;;;6.50;68.83;101767.34;5018725;28;20041;-59
2023/03/05 08:33:52;;;;;;;5.75;3.30;;;;;;;6.56;68.69;101763.78;5028226;28;20033;-59
2023/03/05 08:36:17;;;;;;;8.20;3.22;;;;;;;6.56;68.07;101757.38;5026976;28;20149;-59
2023/03/05 08:38:43;;;;;;;5.80;3.10;;;;;;;6.59;68.91;101762.50;5029299;28;20136;-59
2023/03/05 08:41:09;;;;;;;7.40;3.25;;;;;;;6.59;69.31;101744.03;5029339;28;20533;-58
2023/03/05 08:43:35;;;;;;;6.38;3.08;;;;;;;6.66;68.50;101754.25;5026177;28;20518;-58
2023/03/05 08:46:00;;;;;;;6.43;3.55;;;;;;;6.70;68.29;101748.13;5018590;28;20033;-58
2023/03/05 08:48:27;;;;;;;6.10;3.45;;;;;;;6.76;68.78;101746.44;5025320;28;20041;-58
2023/03/05 08:50:53;;;;;;;5.65;3.40;;;;;;;6.78;68.30;101741.56;5025523;28;20132;-58
2023/03/05 08:53:18;;;;;;;3.65;3.10;;;;;;;6.79;68.51;101743.25;5009994;28;20025;-58
2023/03/05 08:55:52;;;;;;;6.70;2.72;;;;;;;6.82;67.88;101731.81;5011020;28;20518;-58
2023/03/05 08:58:18;;;;;;;5.75;3.05;;;;;;;6.80;68.26;101739.47;5010823;28;20392;-57
2023/03/05 09:00:43;;;;;;;7.88;3.22;;;;;;;6.81;67.96;101730.97;5013304;28;20025;-58
2023/03/05 09:03:08;;;;;;;4.40;3.50;;;;;;;6.83;68.70;101736.28;5027753;28;20025;-58
2023/03/05 09:05:34;;;;;;;3.30;2.80;;;;;;;6.85;68.28;101734.19;5016815;28;20500;-59
2023/03/05 09:08:00;;;;;;;4.70;2.78;;;;;;;6.87;67.60;101727.38;5026435;28;20025;-58
2023/03/05 09:10:25;;;;;;;5.22;3.00;;;;;;;6.92;68.21;101731.41;5022792;28;20496;-59
2023/03/05 09:12:50;;;;;;;2.90;2.58;;;;;;;6.93;67.89;101727.63;5018750;28;20518;-58
2023/03/05 09:15:16;;;;;;;5.50;2.97;;;;;;;6.89;67.97;101721.66;5028614;28;20072;-59
2023/03/05 09:17:41;;;;;;;4.72;2.58;;;;;;;6.93;67.76;101722.94;5030644;28;20416;-59
2023/03/05 09:20:11;;;;;;;3.35;2.38;;;;;;;6.89;67.81;101724.44;5025571;28;20048;-59
2023/03/05 09:22:36;;;;;;;5.28;2.85;;;;;;;6.93;68.25;101722.94;5020197;28;20476;-59
2023/03/05 09:25:02;;;;;;;4.18;2.53;;;;;;;7.00;67.47;101709.19;5022540;28;20030;-59
2023/03/05 09:27:32;;;;;;;4.30;2.55;;;;;;;7.03;67.42;101712.34;5028496;28;20033;-61
2023/03/05 09:29:57;;;;;;;4.00;2.10;;;;;;;7.03;67.08;101704.06;5021877;28;20469;-60
2023/03/05 09:32:23;;;;;;;6.43;2.20;;;;;;;7.04;67.09;101705.78;5028712;28;20044;-60
2023/03/05 09:34:51;;;;;;;5.05;2.30;;;;;;;7.09;66.88;101705.16;5023734;28;20029;-60
2023/03/05 09:37:16;;;;;;;5.82;2.53;;;;;;;7.13;66.97;101699.00;5027409;28;20029;-60
2023/03/05 09:39:42;;;;;;;5.70;2.00;;;;;;;7.18;66.24;101700.28;5025089;28;20080;-61
2023/03/05 09:42:27;;;;;;;5.95;2.28;;;;;;;7.31;67.59;101705.81;5025611;28;20115;-62
2023/03/05 09:45:19;;;;;;;3.97;2.25;;;;;;;7.40;66.67;101696.28;5027889;28;20048;-60
2023/03/05 09:48:09;;;;;;;3.90;2.28;;;;;;;7.42;65.42;101698.81;5024771;28;20041;-60
2023/03/05 09:50:47;;;;;;;3.40;2.00;;;;;;;7.42;64.66;101696.91;5016279;28;20104;-60
2023/03/05 09:53:27;;;;;;;3.30;2.60;;;;;;;7.47;65.44;101696.28;5028042;28;20025;-60
2023/03/05 09:55:55;;;;;;;2.55;2.03;;;;;;;7.42;64.60;101693.28;5021771;28;20478;-60
2023/03/05 09:58:45;;;;;;;5.65;2.53;;;;;;;7.47;64.83;101694.38;5027059;28;20022;-60
2023/03/05 10:01:14;;;;;;;7.13;2.60;;;;;;;7.41;63.94;101675.88;5031709;28;20059;-62
2023/03/05 10:03:52;;;;;;;4.70;2.42;;;;;;;7.42;64.74;101688.59;5032427;28;20082;-60
2023/03/05 10:06:28;;;;;;;3.45;2.40;;;;;;;7.42;64.59;101680.31;5033507;28;20049;-60
2023/03/05 10:09:01;;;;;;;3.45;2.10;;;;;;;7.40;63.85;101684.38;5032762;28;20056;-60
2023/03/05 10:11:36;;;;;;;;;;;;;;;7.53;64.41;101685.22;5025372;28;20048;-60
2023/03/05 10:14:02;;;;;;;2.33;2.10;;;;;;;7.41;63.84;101680.56;5016430;28;21193;-60
2023/03/05 10:17:05;;;;;;;3.28;2.30;;;;;;;7.42;64.54;101679.47;5025186;28;20843;-60
2023/03/05 10:19:36;;;;;;;4.65;2.50;;;;;;;7.39;64.80;101675.25;5024593;28;20587;-59
2023/03/05 10:22:21;;;;;;;2.40;2.20;;;;;;;7.42;64.66;101661.00;5028625;28;20121;-60
2023/03/05 10:25:07;;;;;;;2.47;2.00;;;;;;;7.42;63.56;101671.19;5032673;28;20030;-59
2023/03/05 10:27:48;;;;;;;3.90;1.88;;;;;;;7.45;64.18;101670.78;5031268;28;20042;-60
2023/03/05 10:30:22;;;;;;;5.70;2.15;;;;;;;7.40;63.36;101657.59;5033752;28;20033;-60
2023/03/05 10:33:16;;;;;;;6.93;3.38;;;;;;;7.40;63.41;101654.84;5027728;28;20053;-59
2023/03/05 10:35:59;;;;;;;6.03;2.30;;;;;;;7.40;62.90;101656.75;5025806;28;20140;-60
2023/03/05 10:39:12;;;;;;;7.78;2.40;;;;;;;7.42;63.93;101654.63;5028250;28;20096;-59
2023/03/05 10:42:19;;;;;;;4.53;3.08;;;;;;;7.32;64.65;101655.06;5031585;28;20123;-60
2023/03/05 10:44:51;;;;;;;5.90;3.40;;;;;;;7.28;64.89;101662.06;5018687;28;20080;-60
2023/03/05 10:47:30;;;;;;;12.95;8.27;;;;;;;7.24;65.46;101660.78;5030186;28;20030;-60
2023/03/05 10:49:57;;;;;;;9.05;4.68;;;;;;;7.16;65.94;101663.75;5030059;28;20034;-59
2023/03/05 10:52:34;;;;;;;7.78;4.03;;;;;;;7.11;67.12;101664.38;5035334;28;20025;-59
2023/03/05 10:55:00;;;;;;;6.78;2.88;;;;;;;7.07;67.85;101650.16;5028385;28;20038;-59
2023/03/05 10:57:29;;;;;;;1.88;1.30;;;;;;;7.01;67.62;101641.88;5029583;28;20022;-59
2023/03/05 11:00:15;;;;;;;1.67;1.48;;;;;;;7.00;67.34;101635.50;5027720;28;20037;-60
2023/03/05 11:02:55;;;;;;;2.58;1.67;;;;;;;7.04;67.73;101635.94;5023956;28;20080;-59
2023/03/05 11:06:11;;;;;;;1.73;1.42;;;;;;;7.05;68.28;101632.09;5024012;28;20080;-60
2023/03/05 11:08:37;;;;;;;5.05;1.30;;;;;;;7.11;67.76;101622.97;5020885;28;20044;-61
2023/03/05 11:11:08;;;;;;;3.75;1.60;;;;;;;7.16;69.43;101622.34;5024122;28;20485;-60
2023/03/05 11:13:37;;;;;;;2.72;1.23;;;;;;;7.21;67.95;101625.31;5020616;28;20054;-60
2023/03/05 11:16:16;;;;;;;1.90;1.42;;;;;;;7.26;67.27;101615.31;5026433;28;20083;-60
2023/03/05 11:18:43;;;;;;;2.97;1.60;;;;;;;7.28;67.90;101609.59;5028720;28;20167;-60
2023/03/05 11:21:12;;;;;;;5.88;2.47;;;;;;;7.32;67.60;101608.09;5023185;28;20037;-59
2023/03/05 11:23:38;;;;;;;4.63;3.70;;;;;;;7.35;66.86;101608.53;5022897;28;20481;-60
2023/03/05 11:26:12;;;;;;;4.32;2.92;;;;;;;7.41;68.25;101609.59;5026424;28;20057;-59
2023/03/05 11:28:40;;;;;;;3.90;1.58;;;;;;;7.46;67.86;101604.25;5025889;28;20235;-61
2023/03/05 11:31:14;;;;;;;2.65;1.40;;;;;;;7.57;68.37;101600.00;5026679;28;20064;-58
2023/03/05 11:33:54;;;;;;;2.78;1.27;;;;;;;7.71;68.62;101598.06;5012683;28;20143;-60